sensor_id;sensor_type;location;lat;lon;timestamp;P1;durP1;ratioP1;P2;durP2;ratioP2
19173;SDS011;9719;49.322;8.536;2023-05-10T00:00:31;0.52;;;0.52;;
19173;SDS011;9719;49.322;8.536;2023-05-10T00:05:33;0.60;;;0.60;;
19173;SDS011;9719;49.322;8.536;2023-05-10T00:10:35;0.40;;;0.40;;
19173;SDS011;9719;49.322;8.536;2023-05-10T00:15:38;0.40;;;0.40;;
19173;SDS011;9719;49.322;8.536;2023-05-10T00:20:40;0.50;;;0.50;;
19173;SDS011;9719;49.322;8.536;2023-05-10T00:25:41;0.52;;;0.52;;
19173;SDS011;9719;49.322;8.536;2023-05-10T00:30:44;0.50;;;0.50;;
19173;SDS011;9719;49.322;8.536;2023-05-10T00:35:46;0.40;;;0.40;;
19173;SDS011;9719;49.322;8.536;2023-05-10T00:40:48;0.50;;;0.50;;
19173;SDS011;9719;49.322;8.536;2023-05-10T00:45:51;0.60;;;0.60;;
19173;SDS011;9719;49.322;8.536;2023-05-10T00:50:53;0.40;;;0.40;;
19173;SDS011;9719;49.322;8.536;2023-05-10T00:55:55;0.50;;;0.50;;
19173;SDS011;9719;49.322;8.536;2023-05-10T01:00:58;0.98;;;0.60;;
19173;SDS011;9719;49.322;8.536;2023-05-10T01:06:02;0.50;;;0.50;;
19173;SDS011;9719;49.322;8.536;2023-05-10T01:11:04;0.40;;;0.40;;
19173;SDS011;9719;49.322;8.536;2023-05-10T01:16:07;0.50;;;0.50;;
19173;SDS011;9719;49.322;8.536;2023-05-10T01:21:13;0.40;;;0.40;;
19173;SDS011;9719;49.322;8.536;2023-05-10T01:32:07;0.40;;;0.40;;
19173;SDS011;9719;49.322;8.536;2023-05-10T01:37:25;0.50;;;0.50;;
19173;SDS011;9719;49.322;8.536;2023-05-10T01:42:36;0.50;;;0.50;;
19173;SDS011;9719;49.322;8.536;2023-05-10T01:47:46;1.30;;;1.15;;
19173;SDS011;9719;49.322;8.536;2023-05-10T01:52:51;0.50;;;0.50;;
19173;SDS011;9719;49.322;8.536;2023-05-10T01:57:58;0.60;;;0.60;;
19173;SDS011;9719;49.322;8.536;2023-05-10T02:03:06;0.80;;;0.80;;
19173;SDS011;9719;49.322;8.536;2023-05-10T02:08:09;0.70;;;0.70;;
19173;SDS011;9719;49.322;8.536;2023-05-10T02:13:12;0.50;;;0.50;;
19173;SDS011;9719;49.322;8.536;2023-05-10T02:18:16;0.50;;;0.50;;
19173;SDS011;9719;49.322;8.536;2023-05-10T02:23:19;0.75;;;0.75;;
19173;SDS011;9719;49.322;8.536;2023-05-10T02:28:23;0.60;;;0.60;;
19173;SDS011;9719;49.322;8.536;2023-05-10T02:33:28;0.50;;;0.50;;
19173;SDS011;9719;49.322;8.536;2023-05-10T02:38:32;0.50;;;0.50;;
19173;SDS011;9719;49.322;8.536;2023-05-10T02:43:36;0.70;;;0.70;;
19173;SDS011;9719;49.322;8.536;2023-05-10T02:48:42;1.15;;;0.82;;
19173;SDS011;9719;49.322;8.536;2023-05-10T02:53:44;0.90;;;0.90;;
19173;SDS011;9719;49.322;8.536;2023-05-10T02:58:47;0.93;;;0.93;;
19173;SDS011;9719;49.322;8.536;2023-05-10T03:03:50;0.88;;;0.88;;
19173;SDS011;9719;49.322;8.536;2023-05-10T03:08:52;1.50;;;1.10;;
19173;SDS011;9719;49.322;8.536;2023-05-10T03:13:56;1.00;;;1.00;;
19173;SDS011;9719;49.322;8.536;2023-05-10T03:19:12;1.05;;;0.95;;
19173;SDS011;9719;49.322;8.536;2023-05-10T03:24:18;1.00;;;0.90;;
19173;SDS011;9719;49.322;8.536;2023-05-10T03:29:22;0.82;;;0.80;;
19173;SDS011;9719;49.322;8.536;2023-05-10T03:34:27;0.93;;;0.90;;
19173;SDS011;9719;49.322;8.536;2023-05-10T03:39:31;1.45;;;0.80;;
19173;SDS011;9719;49.322;8.536;2023-05-10T03:44:33;1.08;;;0.98;;
19173;SDS011;9719;49.322;8.536;2023-05-10T03:49:36;1.15;;;0.90;;
19173;SDS011;9719;49.322;8.536;2023-05-10T03:54:37;1.10;;;1.00;;
19173;SDS011;9719;49.322;8.536;2023-05-10T03:59:39;1.38;;;1.13;;
19173;SDS011;9719;49.322;8.536;2023-05-10T04:04:42;0.80;;;0.80;;
19173;SDS011;9719;49.322;8.536;2023-05-10T04:09:44;1.33;;;1.17;;
19173;SDS011;9719;49.322;8.536;2023-05-10T04:14:45;1.27;;;1.05;;
19173;SDS011;9719;49.322;8.536;2023-05-10T04:19:48;1.10;;;1.10;;
19173;SDS011;9719;49.322;8.536;2023-05-10T04:24:53;0.80;;;0.77;;
19173;SDS011;9719;49.322;8.536;2023-05-10T04:29:54;0.80;;;0.80;;
19173;SDS011;9719;49.322;8.536;2023-05-10T04:34:57;0.70;;;0.70;;
19173;SDS011;9719;49.322;8.536;2023-05-10T04:39:59;0.85;;;0.85;;
19173;SDS011;9719;49.322;8.536;2023-05-10T04:45:01;0.70;;;0.70;;
19173;SDS011;9719;49.322;8.536;2023-05-10T04:50:04;1.00;;;0.95;;
19173;SDS011;9719;49.322;8.536;2023-05-10T04:55:07;0.95;;;0.95;;
19173;SDS011;9719;49.322;8.536;2023-05-10T05:00:10;0.80;;;0.80;;
19173;SDS011;9719;49.322;8.536;2023-05-10T05:05:13;0.95;;;0.95;;
19173;SDS011;9719;49.322;8.536;2023-05-10T05:10:15;2.28;;;1.15;;
19173;SDS011;9719;49.322;8.536;2023-05-10T05:15:17;1.00;;;1.00;;
19173;SDS011;9719;49.322;8.536;2023-05-10T05:20:20;1.05;;;0.93;;
19173;SDS011;9719;49.322;8.536;2023-05-10T05:25:22;1.17;;;1.08;;
19173;SDS011;9719;49.322;8.536;2023-05-10T05:30:24;0.90;;;0.90;;
19173;SDS011;9719;49.322;8.536;2023-05-10T05:35:26;0.98;;;0.98;;
19173;SDS011;9719;49.322;8.536;2023-05-10T05:40:28;1.20;;;1.20;;
19173;SDS011;9719;49.322;8.536;2023-05-10T05:45:30;0.90;;;0.90;;
19173;SDS011;9719;49.322;8.536;2023-05-10T05:50:33;1.45;;;1.35;;
19173;SDS011;9719;49.322;8.536;2023-05-10T05:55:34;1.75;;;1.63;;
19173;SDS011;9719;49.322;8.536;2023-05-10T06:00:36;1.23;;;1.13;;
19173;SDS011;9719;49.322;8.536;2023-05-10T06:05:39;1.17;;;1.17;;
19173;SDS011;9719;49.322;8.536;2023-05-10T06:10:41;1.48;;;1.38;;
19173;SDS011;9719;49.322;8.536;2023-05-10T06:15:42;1.42;;;1.33;;
19173;SDS011;9719;49.322;8.536;2023-05-10T06:20:45;1.63;;;1.52;;
19173;SDS011;9719;49.322;8.536;2023-05-10T06:25:47;1.58;;;1.45;;
19173;SDS011;9719;49.322;8.536;2023-05-10T06:30:49;1.58;;;1.48;;
19173;SDS011;9719;49.322;8.536;2023-05-10T06:35:52;1.25;;;1.15;;
19173;SDS011;9719;49.322;8.536;2023-05-10T06:40:54;1.85;;;1.20;;
19173;SDS011;9719;49.322;8.536;2023-05-10T06:45:55;1.40;;;1.20;;
19173;SDS011;9719;49.322;8.536;2023-05-10T06:50:58;1.20;;;1.20;;
19173;SDS011;9719;49.322;8.536;2023-05-10T06:56:00;1.00;;;1.00;;
19173;SDS011;9719;49.322;8.536;2023-05-10T07:01:03;0.80;;;0.80;;
19173;SDS011;9719;49.322;8.536;2023-05-10T07:06:06;1.02;;;1.02;;
19173;SDS011;9719;49.322;8.536;2023-05-10T07:11:08;0.93;;;0.93;;
19173;SDS011;9719;49.322;8.536;2023-05-10T07:16:10;0.88;;;0.73;;
19173;SDS011;9719;49.322;8.536;2023-05-10T07:21:13;1.15;;;0.80;;
19173;SDS011;9719;49.322;8.536;2023-05-10T07:26:14;0.60;;;0.60;;
19173;SDS011;9719;49.322;8.536;2023-05-10T07:31:16;0.90;;;0.90;;
19173;SDS011;9719;49.322;8.536;2023-05-10T07:36:19;1.17;;;1.08;;
19173;SDS011;9719;49.322;8.536;2023-05-10T07:41:21;1.00;;;1.00;;
19173;SDS011;9719;49.322;8.536;2023-05-10T07:46:23;1.08;;;1.00;;
19173;SDS011;9719;49.322;8.536;2023-05-10T07:51:26;0.68;;;0.65;;
19173;SDS011;9719;49.322;8.536;2023-05-10T07:56:28;1.27;;;1.17;;
19173;SDS011;9719;49.322;8.536;2023-05-10T08:01:31;0.70;;;0.70;;
19173;SDS011;9719;49.322;8.536;2023-05-10T08:06:35;0.70;;;0.70;;
19173;SDS011;9719;49.322;8.536;2023-05-10T08:11:37;0.73;;;0.73;;
19173;SDS011;9719;49.322;8.536;2023-05-10T08:16:39;0.60;;;0.60;;
19173;SDS011;9719;49.322;8.536;2023-05-10T08:21:42;2.92;;;0.70;;
19173;SDS011;9719;49.322;8.536;2023-05-10T08:26:43;0.70;;;0.70;;
19173;SDS011;9719;49.322;8.536;2023-05-10T08:31:45;0.60;;;0.60;;
19173;SDS011;9719;49.322;8.536;2023-05-10T08:36:48;0.60;;;0.60;;
19173;SDS011;9719;49.322;8.536;2023-05-10T08:41:50;0.65;;;0.65;;
19173;SDS011;9719;49.322;8.536;2023-05-10T08:46:54;0.40;;;0.40;;
19173;SDS011;9719;49.322;8.536;2023-05-10T08:51:57;1.02;;;0.70;;
19173;SDS011;9719;49.322;8.536;2023-05-10T08:57:03;0.60;;;0.60;;
19173;SDS011;9719;49.322;8.536;2023-05-10T09:02:05;0.55;;;0.55;;
19173;SDS011;9719;49.322;8.536;2023-05-10T09:07:09;1.48;;;0.57;;
19173;SDS011;9719;49.322;8.536;2023-05-10T09:12:12;0.40;;;0.40;;
19173;SDS011;9719;49.322;8.536;2023-05-10T09:17:15;1.15;;;0.80;;
19173;SDS011;9719;49.322;8.536;2023-05-10T09:22:18;0.60;;;0.60;;
19173;SDS011;9719;49.322;8.536;2023-05-10T09:27:26;0.50;;;0.50;;
19173;SDS011;9719;49.322;8.536;2023-05-10T09:32:37;0.50;;;0.50;;
19173;SDS011;9719;49.322;8.536;2023-05-10T09:37:41;0.60;;;0.60;;
19173;SDS011;9719;49.322;8.536;2023-05-10T09:42:50;0.32;;;0.32;;
19173;SDS011;9719;49.322;8.536;2023-05-10T09:47:53;0.50;;;0.50;;
19173;SDS011;9719;49.322;8.536;2023-05-10T09:52:57;0.88;;;0.60;;
19173;SDS011;9719;49.322;8.536;2023-05-10T09:58:00;0.55;;;0.40;;
19173;SDS011;9719;49.322;8.536;2023-05-10T10:03:02;2.60;;;0.85;;
19173;SDS011;9719;49.322;8.536;2023-05-10T10:08:05;0.30;;;0.30;;
19173;SDS011;9719;49.322;8.536;2023-05-10T10:13:07;0.40;;;0.40;;
19173;SDS011;9719;49.322;8.536;2023-05-10T10:18:11;0.45;;;0.40;;
19173;SDS011;9719;49.322;8.536;2023-05-10T10:23:15;0.50;;;0.50;;
19173;SDS011;9719;49.322;8.536;2023-05-10T10:28:21;0.40;;;0.40;;
19173;SDS011;9719;49.322;8.536;2023-05-10T10:33:40;0.70;;;0.70;;
19173;SDS011;9719;49.322;8.536;2023-05-10T10:39:01;0.40;;;0.40;;
19173;SDS011;9719;49.322;8.536;2023-05-10T10:44:23;0.50;;;0.50;;
19173;SDS011;9719;49.322;8.536;2023-05-10T10:49:25;2.00;;;0.30;;
19173;SDS011;9719;49.322;8.536;2023-05-10T10:54:29;0.35;;;0.35;;
19173;SDS011;9719;49.322;8.536;2023-05-10T10:59:31;0.45;;;0.20;;
19173;SDS011;9719;49.322;8.536;2023-05-10T11:04:39;0.40;;;0.40;;
19173;SDS011;9719;49.322;8.536;2023-05-10T11:09:44;0.68;;;0.50;;
19173;SDS011;9719;49.322;8.536;2023-05-10T11:14:49;0.32;;;0.32;;
19173;SDS011;9719;49.322;8.536;2023-05-10T11:20:06;0.32;;;0.32;;
19173;SDS011;9719;49.322;8.536;2023-05-10T11:25:10;0.80;;;0.80;;
19173;SDS011;9719;49.322;8.536;2023-05-10T11:30:12;0.57;;;0.40;;
19173;SDS011;9719;49.322;8.536;2023-05-10T11:35:15;0.75;;;0.60;;
19173;SDS011;9719;49.322;8.536;2023-05-10T11:40:18;0.50;;;0.50;;
19173;SDS011;9719;49.322;8.536;2023-05-10T11:45:23;0.50;;;0.50;;
19173;SDS011;9719;49.322;8.536;2023-05-10T11:50:26;2.15;;;0.50;;
19173;SDS011;9719;49.322;8.536;2023-05-10T11:55:29;1.65;;;0.77;;
19173;SDS011;9719;49.322;8.536;2023-05-10T12:00:34;0.52;;;0.52;;
19173;SDS011;9719;49.322;8.536;2023-05-10T12:05:36;0.60;;;0.60;;
19173;SDS011;9719;49.322;8.536;2023-05-10T12:10:40;0.80;;;0.75;;
19173;SDS011;9719;49.322;8.536;2023-05-10T12:15:42;0.50;;;0.50;;
19173;SDS011;9719;49.322;8.536;2023-05-10T12:20:44;0.40;;;0.40;;
19173;SDS011;9719;49.322;8.536;2023-05-10T12:25:47;0.60;;;0.60;;
19173;SDS011;9719;49.322;8.536;2023-05-10T12:30:49;0.40;;;0.40;;
19173;SDS011;9719;49.322;8.536;2023-05-10T12:35:54;0.50;;;0.50;;
19173;SDS011;9719;49.322;8.536;2023-05-10T12:40:58;0.32;;;0.32;;
19173;SDS011;9719;49.322;8.536;2023-05-10T12:46:04;0.80;;;0.70;;
19173;SDS011;9719;49.322;8.536;2023-05-10T12:51:06;0.85;;;0.55;;
19173;SDS011;9719;49.322;8.536;2023-05-10T12:56:11;0.50;;;0.50;;
19173;SDS011;9719;49.322;8.536;2023-05-10T13:01:12;0.63;;;0.63;;
19173;SDS011;9719;49.322;8.536;2023-05-10T13:06:14;6.18;;;1.17;;
19173;SDS011;9719;49.322;8.536;2023-05-10T13:11:18;1.23;;;0.63;;
19173;SDS011;9719;49.322;8.536;2023-05-10T13:16:21;0.45;;;0.45;;
19173;SDS011;9719;49.322;8.536;2023-05-10T13:21:23;0.73;;;0.73;;
19173;SDS011;9719;49.322;8.536;2023-05-10T13:26:26;0.47;;;0.47;;
19173;SDS011;9719;49.322;8.536;2023-05-10T13:31:28;0.40;;;0.40;;
19173;SDS011;9719;49.322;8.536;2023-05-10T13:36:30;5.45;;;0.82;;
19173;SDS011;9719;49.322;8.536;2023-05-10T13:41:33;1.48;;;0.68;;
19173;SDS011;9719;49.322;8.536;2023-05-10T13:46:34;0.32;;;0.32;;
19173;SDS011;9719;49.322;8.536;2023-05-10T13:51:37;0.40;;;0.40;;
19173;SDS011;9719;49.322;8.536;2023-05-10T13:56:41;0.57;;;0.57;;
19173;SDS011;9719;49.322;8.536;2023-05-10T14:01:43;3.60;;;1.00;;
19173;SDS011;9719;49.322;8.536;2023-05-10T14:06:45;1.92;;;1.15;;
19173;SDS011;9719;49.322;8.536;2023-05-10T14:11:48;0.20;;;0.20;;
19173;SDS011;9719;49.322;8.536;2023-05-10T14:16:50;0.32;;;0.32;;
19173;SDS011;9719;49.322;8.536;2023-05-10T14:21:52;0.50;;;0.50;;
19173;SDS011;9719;49.322;8.536;2023-05-10T14:26:54;0.50;;;0.50;;
19173;SDS011;9719;49.322;8.536;2023-05-10T14:31:57;0.30;;;0.30;;
19173;SDS011;9719;49.322;8.536;2023-05-10T14:36:58;0.30;;;0.30;;
19173;SDS011;9719;49.322;8.536;2023-05-10T14:42:01;0.93;;;0.47;;
19173;SDS011;9719;49.322;8.536;2023-05-10T14:47:03;0.40;;;0.40;;
19173;SDS011;9719;49.322;8.536;2023-05-10T14:52:05;0.45;;;0.45;;
19173;SDS011;9719;49.322;8.536;2023-05-10T14:57:08;0.60;;;0.60;;
19173;SDS011;9719;49.322;8.536;2023-05-10T15:02:10;0.60;;;0.60;;
19173;SDS011;9719;49.322;8.536;2023-05-10T15:07:12;0.40;;;0.40;;
19173;SDS011;9719;49.322;8.536;2023-05-10T15:12:17;0.40;;;0.40;;
19173;SDS011;9719;49.322;8.536;2023-05-10T15:17:19;1.00;;;0.32;;
19173;SDS011;9719;49.322;8.536;2023-05-10T15:22:21;0.40;;;0.40;;
19173;SDS011;9719;49.322;8.536;2023-05-10T15:27:24;4.30;;;0.55;;
19173;SDS011;9719;49.322;8.536;2023-05-10T15:32:25;0.20;;;0.20;;
19173;SDS011;9719;49.322;8.536;2023-05-10T15:37:29;1.08;;;0.38;;
19173;SDS011;9719;49.322;8.536;2023-05-10T15:42:32;0.28;;;0.28;;
19173;SDS011;9719;49.322;8.536;2023-05-10T15:47:33;0.35;;;0.35;;
19173;SDS011;9719;49.322;8.536;2023-05-10T15:52:36;0.30;;;0.30;;
19173;SDS011;9719;49.322;8.536;2023-05-10T15:57:39;0.30;;;0.30;;
19173;SDS011;9719;49.322;8.536;2023-05-10T16:02:41;0.32;;;0.32;;
19173;SDS011;9719;49.322;8.536;2023-05-10T16:07:43;0.40;;;0.40;;
19173;SDS011;9719;49.322;8.536;2023-05-10T16:12:45;1.20;;;0.93;;
19173;SDS011;9719;49.322;8.536;2023-05-10T16:17:47;0.38;;;0.30;;
19173;SDS011;9719;49.322;8.536;2023-05-10T16:22:49;0.40;;;0.40;;
19173;SDS011;9719;49.322;8.536;2023-05-10T16:27:52;0.47;;;0.47;;
19173;SDS011;9719;49.322;8.536;2023-05-10T16:32:54;1.20;;;0.35;;
19173;SDS011;9719;49.322;8.536;2023-05-10T16:37:56;0.40;;;0.40;;
19173;SDS011;9719;49.322;8.536;2023-05-10T16:42:59;0.65;;;0.63;;
19173;SDS011;9719;49.322;8.536;2023-05-10T16:48:00;1.23;;;1.00;;
19173;SDS011;9719;49.322;8.536;2023-05-10T16:53:02;2.17;;;1.70;;
19173;SDS011;9719;49.322;8.536;2023-05-10T16:58:05;0.95;;;0.85;;
19173;SDS011;9719;49.322;8.536;2023-05-10T17:03:07;0.60;;;0.60;;
19173;SDS011;9719;49.322;8.536;2023-05-10T17:08:09;1.35;;;1.00;;
19173;SDS011;9719;49.322;8.536;2023-05-10T17:13:12;2.08;;;1.80;;
19173;SDS011;9719;49.322;8.536;2023-05-10T17:18:16;2.83;;;1.80;;
19173;SDS011;9719;49.322;8.536;2023-05-10T17:23:18;1.10;;;1.00;;
19173;SDS011;9719;49.322;8.536;2023-05-10T17:28:21;1.73;;;1.13;;
19173;SDS011;9719;49.322;8.536;2023-05-10T17:33:23;1.48;;;0.90;;
19173;SDS011;9719;49.322;8.536;2023-05-10T17:38:24;0.90;;;0.90;;
19173;SDS011;9719;49.322;8.536;2023-05-10T17:43:27;0.65;;;0.65;;
19173;SDS011;9719;49.322;8.536;2023-05-10T17:48:29;1.15;;;1.15;;
19173;SDS011;9719;49.322;8.536;2023-05-10T17:53:31;1.35;;;1.25;;
19173;SDS011;9719;49.322;8.536;2023-05-10T17:58:35;1.35;;;1.10;;
19173;SDS011;9719;49.322;8.536;2023-05-10T18:03:37;1.25;;;0.93;;
19173;SDS011;9719;49.322;8.536;2023-05-10T18:08:39;1.50;;;1.40;;
19173;SDS011;9719;49.322;8.536;2023-05-10T18:13:42;1.23;;;0.90;;
19173;SDS011;9719;49.322;8.536;2023-05-10T18:18:44;0.60;;;0.60;;
19173;SDS011;9719;49.322;8.536;2023-05-10T18:23:46;1.60;;;0.80;;
19173;SDS011;9719;49.322;8.536;2023-05-10T18:28:49;0.80;;;0.80;;
19173;SDS011;9719;49.322;8.536;2023-05-10T18:33:50;1.27;;;0.90;;
19173;SDS011;9719;49.322;8.536;2023-05-10T18:38:52;0.40;;;0.40;;
19173;SDS011;9719;49.322;8.536;2023-05-10T18:43:56;2.05;;;0.50;;
19173;SDS011;9719;49.322;8.536;2023-05-10T18:48:57;0.52;;;0.52;;
19173;SDS011;9719;49.322;8.536;2023-05-10T18:53:59;0.47;;;0.47;;
19173;SDS011;9719;49.322;8.536;2023-05-10T18:59:02;0.40;;;0.40;;
19173;SDS011;9719;49.322;8.536;2023-05-10T19:04:04;0.52;;;0.52;;
19173;SDS011;9719;49.322;8.536;2023-05-10T19:09:05;0.40;;;0.40;;
19173;SDS011;9719;49.322;8.536;2023-05-10T19:14:08;1.75;;;0.60;;
19173;SDS011;9719;49.322;8.536;2023-05-10T19:19:10;1.17;;;0.60;;
19173;SDS011;9719;49.322;8.536;2023-05-10T19:24:12;0.73;;;0.47;;
19173;SDS011;9719;49.322;8.536;2023-05-10T19:29:15;0.50;;;0.50;;
19173;SDS011;9719;49.322;8.536;2023-05-10T19:34:17;0.50;;;0.50;;
19173;SDS011;9719;49.322;8.536;2023-05-10T19:39:20;0.75;;;0.65;;
19173;SDS011;9719;49.322;8.536;2023-05-10T19:44:23;0.47;;;0.47;;
19173;SDS011;9719;49.322;8.536;2023-05-10T19:49:24;0.47;;;0.47;;
19173;SDS011;9719;49.322;8.536;2023-05-10T19:54:26;0.50;;;0.50;;
19173;SDS011;9719;49.322;8.536;2023-05-10T19:59:29;0.65;;;0.65;;
19173;SDS011;9719;49.322;8.536;2023-05-10T20:04:30;0.63;;;0.63;;
19173;SDS011;9719;49.322;8.536;2023-05-10T20:09:32;0.50;;;0.50;;
19173;SDS011;9719;49.322;8.536;2023-05-10T20:14:35;1.15;;;0.60;;
19173;SDS011;9719;49.322;8.536;2023-05-10T20:19:37;0.50;;;0.32;;
19173;SDS011;9719;49.322;8.536;2023-05-10T20:24:39;0.52;;;0.52;;
19173;SDS011;9719;49.322;8.536;2023-05-10T20:29:42;1.60;;;0.50;;
19173;SDS011;9719;49.322;8.536;2023-05-10T20:34:44;5.80;;;0.80;;
19173;SDS011;9719;49.322;8.536;2023-05-10T20:39:45;0.40;;;0.40;;
19173;SDS011;9719;49.322;8.536;2023-05-10T20:44:48;0.50;;;0.50;;
19173;SDS011;9719;49.322;8.536;2023-05-10T20:49:50;0.95;;;0.85;;
19173;SDS011;9719;49.322;8.536;2023-05-10T20:54:52;0.55;;;0.55;;
19173;SDS011;9719;49.322;8.536;2023-05-10T20:59:55;1.25;;;0.90;;
19173;SDS011;9719;49.322;8.536;2023-05-10T21:04:57;1.95;;;0.93;;
19173;SDS011;9719;49.322;8.536;2023-05-10T21:09:59;1.00;;;1.00;;
19173;SDS011;9719;49.322;8.536;2023-05-10T21:15:03;1.10;;;1.10;;
19173;SDS011;9719;49.322;8.536;2023-05-10T21:20:06;0.60;;;0.60;;
19173;SDS011;9719;49.322;8.536;2023-05-10T21:25:08;1.85;;;0.90;;
19173;SDS011;9719;49.322;8.536;2023-05-10T21:30:12;0.68;;;0.68;;
19173;SDS011;9719;49.322;8.536;2023-05-10T21:35:14;0.68;;;0.68;;
19173;SDS011;9719;49.322;8.536;2023-05-10T21:40:15;0.50;;;0.50;;
19173;SDS011;9719;49.322;8.536;2023-05-10T21:45:19;0.73;;;0.70;;
19173;SDS011;9719;49.322;8.536;2023-05-10T21:50:20;1.35;;;0.88;;
19173;SDS011;9719;49.322;8.536;2023-05-10T21:55:22;0.70;;;0.70;;
19173;SDS011;9719;49.322;8.536;2023-05-10T22:00:25;1.00;;;0.95;;
19173;SDS011;9719;49.322;8.536;2023-05-10T22:05:27;0.70;;;0.70;;
19173;SDS011;9719;49.322;8.536;2023-05-10T22:10:29;1.10;;;0.73;;
19173;SDS011;9719;49.322;8.536;2023-05-10T22:15:33;0.70;;;0.70;;
19173;SDS011;9719;49.322;8.536;2023-05-10T22:20:34;1.00;;;0.95;;
19173;SDS011;9719;49.322;8.536;2023-05-10T22:25:36;1.05;;;1.05;;
19173;SDS011;9719;49.322;8.536;2023-05-10T22:30:39;0.80;;;0.80;;
19173;SDS011;9719;49.322;8.536;2023-05-10T22:35:41;1.27;;;0.75;;
19173;SDS011;9719;49.322;8.536;2023-05-10T22:40:43;0.93;;;0.93;;
19173;SDS011;9719;49.322;8.536;2023-05-10T22:45:46;0.85;;;0.57;;
19173;SDS011;9719;49.322;8.536;2023-05-10T22:50:48;0.80;;;0.80;;
19173;SDS011;9719;49.322;8.536;2023-05-10T22:55:49;0.80;;;0.77;;
19173;SDS011;9719;49.322;8.536;2023-05-10T23:00:53;0.60;;;0.60;;
19173;SDS011;9719;49.322;8.536;2023-05-10T23:05:55;0.40;;;0.40;;
19173;SDS011;9719;49.322;8.536;2023-05-10T23:10:57;0.80;;;0.80;;
19173;SDS011;9719;49.322;8.536;2023-05-10T23:16:04;0.90;;;0.70;;
19173;SDS011;9719;49.322;8.536;2023-05-10T23:21:06;1.08;;;1.05;;
19173;SDS011;9719;49.322;8.536;2023-05-10T23:26:08;0.70;;;0.70;;
19173;SDS011;9719;49.322;8.536;2023-05-10T23:31:11;1.67;;;0.70;;
19173;SDS011;9719;49.322;8.536;2023-05-10T23:36:12;1.08;;;0.77;;
19173;SDS011;9719;49.322;8.536;2023-05-10T23:41:14;0.70;;;0.70;;
19173;SDS011;9719;49.322;8.536;2023-05-10T23:46:17;0.70;;;0.70;;
19173;SDS011;9719;49.322;8.536;2023-05-10T23:51:18;0.60;;;0.60;;
19173;SDS011;9719;49.322;8.536;2023-05-10T23:56:20;1.15;;;0.80;;
